createdAt,value
2018-10-21T00:00:00.734Z,60.90
2018-10-21T00:02:28.366Z,61.10
2018-10-21T00:04:55.969Z,60.70
2018-10-21T00:07:23.536Z,62.00
2018-10-21T00:09:51.198Z,63.40
2018-10-21T00:12:18.759Z,61.70
2018-10-21T00:14:46.319Z,62.20
2018-10-21T00:17:13.869Z,62.80
2018-10-21T00:19:41.461Z,63.20
2018-10-21T00:22:09.043Z,63.50
2018-10-21T00:24:36.640Z,62.20
2018-10-21T00:27:05.189Z,63.20
2018-10-21T00:29:32.992Z,60.70
2018-10-21T00:32:00.547Z,61.20
2018-10-21T00:34:28.089Z,59.40
2018-10-21T00:36:55.667Z,61.50
2018-10-21T00:39:23.268Z,63.20
2018-10-21T00:41:50.883Z,62.60
2018-10-21T00:44:18.454Z,61.70
2018-10-21T00:46:46.029Z,62.40
2018-10-21T00:49:13.650Z,62.50
2018-10-21T00:51:41.269Z,64.20
2018-10-21T00:54:14.914Z,65.00
2018-10-21T00:56:43.683Z,65.70
2018-10-21T00:59:11.306Z,64.30
2018-10-21T01:01:38.947Z,64.00
2018-10-21T01:04:06.694Z,63.50
2018-10-21T01:06:34.274Z,61.00
2018-10-21T01:09:02.253Z,61.30
2018-10-21T01:11:29.841Z,62.40
2018-10-21T01:13:57.442Z,64.70
2018-10-21T01:16:25.019Z,62.70
2018-10-21T01:18:52.682Z,63.90
2018-10-21T01:21:20.250Z,61.30
2018-10-21T01:23:47.853Z,60.00
2018-10-21T01:26:15.428Z,60.30
2018-10-21T01:28:42.979Z,61.50
2018-10-21T01:31:10.546Z,64.00
2018-10-21T01:33:38.130Z,65.10
2018-10-21T01:36:05.701Z,65.50
2018-10-21T01:38:33.281Z,64.30
2018-10-21T01:41:00.846Z,65.30
2018-10-21T01:43:32.385Z,63.00
2018-10-21T01:46:00.467Z,62.80
2018-10-21T01:48:29.084Z,63.70
2018-10-21T01:50:56.689Z,66.40
2018-10-21T01:53:24.436Z,66.00
2018-10-21T01:55:51.963Z,64.30
2018-10-21T01:58:19.618Z,62.20
2018-10-21T02:00:47.252Z,63.00
2018-10-21T02:03:14.946Z,63.40
2018-10-21T02:05:43.514Z,60.20
2018-10-21T02:08:11.200Z,62.80
2018-10-21T02:10:38.803Z,61.40
2018-10-21T02:13:06.458Z,65.50
2018-10-21T02:15:34.035Z,65.40
2018-10-21T02:18:01.638Z,64.10
2018-10-21T02:20:29.232Z,64.60
2018-10-21T02:22:57.611Z,63.20
2018-10-21T02:25:25.206Z,63.80
2018-10-21T02:27:53.046Z,62.50
2018-10-21T02:30:24.847Z,61.80
2018-10-21T02:32:52.913Z,61.90
2018-10-21T02:35:20.962Z,62.90
2018-10-21T02:37:49.022Z,61.80
2018-10-21T02:41:43.390Z,61.70
2018-10-21T02:44:12.590Z,64.00
2018-10-21T02:46:40.694Z,67.50
2018-10-21T02:49:08.958Z,65.60
2018-10-21T02:51:36.723Z,66.30
2018-10-21T02:54:05.032Z,64.60
2018-10-21T02:56:32.647Z,66.80
2018-10-21T02:59:00.202Z,63.30
2018-10-21T03:01:27.846Z,61.20
2018-10-21T03:03:55.468Z,62.80
2018-10-21T03:06:23.039Z,60.70
2018-10-21T03:08:50.704Z,64.40
2018-10-21T03:11:18.403Z,65.30
2018-10-21T03:13:46.017Z,66.40
2018-10-21T03:16:13.608Z,65.30
2018-10-21T03:18:41.310Z,66.10
2018-10-21T03:21:09.105Z,65.50
2018-10-21T03:23:36.707Z,65.50
2018-10-21T03:26:04.448Z,64.50
2018-10-21T03:28:32.563Z,65.60
2018-10-21T03:31:00.375Z,64.00
2018-10-21T03:33:28.119Z,63.70
2018-10-21T03:35:55.663Z,61.90
2018-10-21T03:38:23.257Z,63.00
2018-10-21T03:40:50.790Z,62.20
2018-10-21T03:43:18.350Z,62.30
2018-10-21T03:45:45.916Z,66.80
2018-10-21T03:48:13.522Z,68.00
2018-10-21T03:50:41.175Z,67.50
2018-10-21T03:53:08.718Z,65.20
2018-10-21T03:55:38.375Z,64.20
2018-10-21T03:58:06.041Z,62.90
2018-10-21T04:00:33.967Z,64.40
2018-10-21T04:03:01.795Z,64.60
2018-10-21T04:05:29.376Z,64.00
2018-10-21T04:07:56.990Z,65.40
2018-10-21T04:10:24.727Z,64.70
2018-10-21T04:12:52.272Z,63.70
2018-10-21T04:15:19.906Z,65.20
2018-10-21T04:17:47.493Z,66.40
2018-10-21T04:20:15.099Z,66.40
2018-10-21T04:22:51.567Z,66.80
2018-10-21T04:25:19.707Z,68.30
2018-10-21T04:27:47.511Z,65.90
2018-10-21T04:30:22.862Z,66.50
2018-10-21T04:32:54.371Z,65.40
2018-10-21T04:35:21.971Z,66.20
2018-10-21T04:39:30.478Z,64.00
2018-10-21T04:41:58.031Z,65.90
2018-10-21T04:44:25.610Z,65.80
2018-10-21T04:46:53.420Z,64.10
2018-10-21T04:49:20.974Z,60.60
2018-10-21T04:51:48.667Z,65.50
2018-10-21T04:54:16.269Z,65.50
2018-10-21T04:56:43.966Z,63.90
2018-10-21T04:59:11.585Z,60.40
2018-10-21T05:01:39.367Z,60.00
2018-10-21T05:04:06.950Z,63.00
2018-10-21T05:06:34.582Z,63.80
2018-10-21T05:09:02.273Z,64.50
2018-10-21T05:11:29.842Z,62.60
2018-10-21T05:13:57.395Z,63.00
2018-10-21T05:16:25.098Z,66.20
2018-10-21T05:18:52.674Z,63.40
2018-10-21T05:21:20.476Z,65.50
2018-10-21T05:23:48.102Z,67.80
2018-10-21T05:26:15.649Z,70.10
2018-10-21T05:28:43.330Z,66.90
2018-10-21T05:31:10.959Z,63.00
2018-10-21T05:33:38.530Z,62.60
2018-10-21T05:36:06.094Z,62.70
2018-10-21T05:38:33.813Z,62.50
2018-10-21T05:41:01.452Z,62.00
2018-10-21T05:43:29.019Z,61.10
2018-10-21T05:45:56.596Z,60.40
2018-10-21T05:48:24.158Z,62.10
2018-10-21T05:50:51.854Z,64.00
2018-10-21T05:53:19.443Z,64.50
2018-10-21T05:55:47.051Z,62.00
2018-10-21T05:58:14.628Z,61.80
2018-10-21T06:00:42.265Z,62.30
2018-10-21T06:03:09.854Z,63.00
2018-10-21T06:05:39.134Z,61.80
2018-10-21T06:08:06.986Z,61.40
2018-10-21T06:10:34.546Z,59.40
2018-10-21T06:13:02.183Z,58.80
2018-10-21T06:15:29.855Z,58.60
2018-10-21T06:17:57.581Z,58.60
2018-10-21T06:20:29.431Z,58.60
2018-10-21T06:22:57.237Z,58.40
2018-10-21T06:25:24.952Z,60.10
2018-10-21T06:27:52.534Z,59.70
2018-10-21T06:30:20.110Z,59.10
2018-10-21T06:32:47.797Z,59.10
2018-10-21T06:35:15.439Z,60.20
2018-10-21T06:37:43.151Z,59.20
2018-10-21T06:40:11.611Z,60.00
2018-10-21T06:42:39.228Z,62.20
2018-10-21T06:45:07.704Z,60.90
2018-10-21T06:47:35.330Z,59.40
2018-10-21T06:50:02.993Z,60.20
2018-10-21T06:52:30.602Z,60.10
2018-10-21T06:54:58.198Z,60.30
2018-10-21T06:57:25.981Z,60.20
2018-10-21T06:59:53.480Z,63.20
2018-10-21T07:02:21.089Z,60.40
2018-10-21T07:04:48.726Z,61.40
2018-10-21T07:07:16.299Z,60.00
2018-10-21T07:09:43.921Z,65.40
2018-10-21T07:12:11.619Z,63.70
2018-10-21T07:14:39.210Z,63.10
2018-10-21T07:17:06.806Z,62.50
2018-10-21T07:19:34.463Z,63.50
2018-10-21T07:22:02.137Z,59.80
2018-10-21T07:24:29.666Z,62.40
2018-10-21T07:26:57.281Z,63.00
2018-10-21T07:29:24.927Z,60.30
2018-10-21T07:31:52.523Z,58.80
2018-10-21T07:34:20.292Z,59.60
2018-10-21T07:36:47.785Z,62.70
2018-10-21T07:39:15.446Z,59.40
2018-10-21T07:41:43.025Z,59.20
2018-10-21T07:44:10.622Z,58.90
2018-10-21T07:46:38.213Z,59.70
2018-10-21T07:49:05.919Z,59.60
2018-10-21T07:51:33.459Z,57.20
2018-10-21T07:54:01.054Z,59.40
2018-10-21T07:56:28.667Z,62.00
2018-10-21T07:58:56.246Z,60.00
2018-10-21T08:01:23.901Z,57.40
2018-10-21T08:03:51.481Z,55.00
2018-10-21T08:06:32.600Z,54.70
2018-10-21T08:09:00.192Z,58.00
2018-10-21T08:11:27.849Z,57.80
2018-10-21T08:14:07.390Z,57.80
2018-10-21T08:16:34.992Z,57.30
2018-10-21T08:19:02.610Z,55.50
2018-10-21T08:21:30.235Z,59.60
2018-10-21T08:23:57.814Z,55.80
2018-10-21T08:26:25.402Z,58.30
2018-10-21T08:28:53.022Z,58.20
2018-10-21T08:31:20.629Z,57.60
2018-10-21T08:33:48.193Z,55.00
2018-10-21T08:36:15.753Z,57.60
2018-10-21T08:38:43.354Z,57.20
2018-10-21T08:41:10.942Z,59.60
2018-10-21T08:43:38.530Z,57.70
2018-10-21T08:46:06.225Z,55.20
2018-10-21T08:48:33.762Z,59.10
2018-10-21T08:51:01.577Z,56.70
2018-10-21T08:53:29.364Z,58.50
2018-10-21T08:55:57.055Z,57.70
2018-10-21T08:58:24.640Z,57.70
2018-10-21T09:00:52.327Z,57.30
2018-10-21T09:03:19.968Z,57.30
2018-10-21T09:05:47.570Z,56.20
2018-10-21T09:08:15.165Z,57.50
2018-10-21T09:10:42.830Z,56.70
2018-10-21T09:13:10.431Z,55.20
2018-10-21T09:15:37.950Z,55.20
2018-10-21T09:18:05.570Z,55.70
2018-10-21T09:20:33.166Z,55.90
2018-10-21T09:23:00.745Z,55.60
2018-10-21T09:25:28.371Z,56.00
2018-10-21T09:27:56.045Z,57.00
2018-10-21T09:30:23.670Z,57.50
2018-10-21T09:32:51.279Z,57.80
2018-10-21T09:35:19.066Z,55.40
2018-10-21T09:37:46.710Z,55.10
2018-10-21T09:40:15.614Z,55.90
2018-10-21T09:42:43.661Z,55.40
2018-10-21T09:45:13.713Z,56.40
2018-10-21T09:47:41.594Z,53.80
2018-10-21T09:50:09.259Z,57.40
2018-10-21T09:52:36.820Z,55.20
2018-10-21T09:55:04.904Z,53.50
2018-10-21T09:57:32.505Z,55.00
2018-10-21T10:00:00.148Z,54.70
2018-10-21T10:02:33.369Z,52.00
2018-10-21T10:05:01.009Z,54.90
2018-10-21T10:07:29.237Z,53.00
2018-10-21T10:09:56.882Z,49.80
2018-10-21T10:12:24.541Z,51.60
2018-10-21T10:14:52.097Z,51.90
2018-10-21T10:17:19.788Z,54.50
2018-10-21T10:19:47.339Z,51.90
2018-10-21T10:22:15.034Z,51.70
2018-10-21T10:24:42.571Z,49.60
2018-10-21T10:27:10.192Z,50.30
2018-10-21T10:29:37.795Z,48.40
2018-10-21T10:32:05.438Z,47.90
2018-10-21T10:34:33.006Z,48.60
2018-10-21T10:37:00.627Z,52.00
2018-10-21T10:39:28.146Z,49.60
2018-10-21T10:41:55.893Z,47.90
2018-10-21T10:44:23.374Z,47.10
2018-10-21T10:46:50.975Z,46.50
2018-10-21T10:49:18.686Z,46.20
2018-10-21T10:51:46.168Z,46.00
2018-10-21T10:54:13.746Z,46.00
2018-10-21T10:56:41.297Z,44.90
2018-10-21T10:59:08.925Z,44.80
2018-10-21T11:01:36.556Z,45.20
2018-10-21T11:04:04.404Z,42.20
2018-10-21T11:06:32.149Z,39.70
2018-10-21T11:08:59.829Z,37.30
2018-10-21T11:14:37.052Z,29.00
2018-10-21T11:17:04.707Z,29.70
2018-10-21T11:19:32.382Z,31.60
2018-10-21T11:22:00.142Z,33.60
2018-10-21T11:24:27.962Z,34.20
2018-10-21T11:26:55.733Z,32.80
2018-10-21T11:29:23.494Z,32.30
2018-10-21T11:31:51.299Z,34.60
2018-10-21T11:34:19.020Z,34.30
2018-10-21T11:36:46.876Z,35.30
2018-10-21T11:39:14.548Z,37.00
2018-10-21T11:41:42.222Z,36.70
2018-10-21T11:44:10.042Z,37.70
2018-10-21T11:46:37.817Z,37.20
2018-10-21T11:49:05.630Z,34.70
2018-10-21T11:51:33.481Z,32.40
2018-10-21T11:54:01.206Z,31.20
2018-10-21T11:56:28.954Z,30.40
2018-10-21T11:58:56.727Z,31.80
2018-10-21T12:01:24.508Z,34.80
2018-10-21T12:03:52.216Z,37.40
2018-10-21T12:06:19.972Z,39.60
2018-10-21T12:08:47.637Z,40.00
2018-10-21T12:11:15.362Z,39.60
2018-10-21T12:13:43.011Z,41.40
2018-10-21T12:16:10.729Z,40.80
2018-10-21T12:18:38.379Z,40.90
2018-10-21T12:21:06.043Z,38.00
2018-10-21T12:23:42.145Z,41.50
2018-10-21T12:26:09.911Z,40.10
2018-10-21T12:28:37.555Z,42.30
2018-10-21T12:31:05.250Z,44.10
2018-10-21T12:33:37.431Z,43.10
2018-10-21T12:36:05.170Z,41.20
2018-10-21T12:38:32.798Z,40.20
2018-10-21T12:41:00.504Z,39.00
2018-10-21T12:43:28.136Z,39.10
2018-10-21T12:45:55.785Z,38.90
2018-10-21T12:48:23.450Z,37.20
2018-10-21T12:50:51.201Z,37.80
2018-10-21T13:09:03.112Z,38.70
2018-10-21T13:11:30.720Z,41.70
2018-10-21T13:13:58.451Z,41.80
2018-10-21T13:16:26.173Z,43.20
2018-10-21T13:18:57.299Z,40.20
2018-10-21T13:21:24.893Z,40.40
2018-10-21T13:23:52.502Z,37.40
2018-10-21T13:26:20.220Z,38.20
2018-10-21T13:28:48.374Z,38.20
2018-10-21T13:31:16.166Z,37.40
2018-10-21T13:33:43.941Z,38.90
2018-10-21T13:36:11.752Z,37.70
2018-10-21T13:38:39.434Z,35.80
2018-10-21T13:41:07.112Z,35.40
2018-10-21T13:43:34.724Z,35.20
2018-10-21T13:46:02.472Z,35.00
2018-10-21T13:48:30.009Z,35.70
2018-10-21T13:50:57.647Z,35.30
2018-10-21T13:53:25.366Z,37.00
2018-10-21T13:55:53.111Z,37.70
2018-10-21T13:58:20.755Z,38.80
2018-10-21T14:00:48.565Z,35.80
2018-10-21T14:03:16.331Z,36.20
2018-10-21T14:05:44.029Z,35.90
2018-10-21T14:08:11.832Z,34.90
2018-10-21T14:10:39.518Z,35.20
2018-10-21T14:13:07.234Z,36.50
2018-10-21T14:15:34.980Z,36.60
2018-10-21T14:18:02.973Z,35.10
2018-10-21T14:20:30.748Z,34.80
2018-10-21T14:22:58.451Z,34.60
2018-10-21T14:25:26.188Z,36.00
2018-10-21T14:27:53.893Z,35.20
2018-10-21T14:30:21.581Z,35.10
2018-10-21T14:32:49.230Z,36.20
2018-10-21T14:35:16.909Z,35.30
2018-10-21T14:37:44.583Z,35.20
2018-10-21T14:40:13.044Z,35.00
2018-10-21T14:42:40.950Z,34.90
2018-10-21T14:45:10.222Z,35.00
2018-10-21T14:47:38.382Z,35.20
2018-10-21T14:50:06.409Z,35.90
2018-10-21T14:52:34.303Z,35.00
2018-10-21T14:55:02.037Z,34.80
2018-10-21T14:57:29.694Z,35.50
2018-10-21T14:59:57.386Z,35.30
2018-10-21T15:02:25.023Z,36.00
2018-10-21T15:04:52.686Z,35.80
2018-10-21T15:07:20.443Z,35.40
2018-10-21T15:09:48.191Z,35.30
2018-10-21T15:12:16.053Z,35.50
2018-10-21T15:14:43.636Z,35.90
2018-10-21T15:17:11.332Z,35.60
2018-10-21T15:19:39.041Z,35.60
2018-10-21T15:22:06.706Z,35.70
2018-10-21T15:24:34.473Z,35.80
2018-10-21T15:27:02.024Z,36.10
2018-10-21T15:29:29.657Z,36.20
2018-10-21T15:31:57.281Z,36.40
2018-10-21T15:34:31.669Z,37.10
2018-10-21T15:36:59.375Z,37.60
2018-10-21T15:39:27.091Z,43.80
2018-10-21T15:41:54.731Z,36.80
2018-10-21T15:44:22.365Z,37.40
2018-10-21T15:46:49.992Z,39.20
2018-10-21T15:49:17.669Z,36.90
2018-10-21T15:51:45.335Z,37.70
2018-10-21T15:54:13.017Z,38.30
2018-10-21T15:56:40.738Z,37.80
2018-10-21T15:59:10.612Z,46.90
2018-10-21T16:01:38.293Z,36.90
2018-10-21T16:06:27.233Z,37.90
2018-10-21T16:08:54.919Z,36.70
2018-10-21T16:11:22.545Z,37.60
2018-10-21T16:13:50.159Z,36.70
2018-10-21T16:16:17.857Z,41.00
2018-10-21T16:18:45.587Z,40.00
2018-10-21T16:21:13.166Z,37.60
2018-10-21T16:23:40.771Z,38.60
2018-10-21T16:26:08.369Z,37.60
2018-10-21T16:28:35.926Z,43.30
2018-10-21T16:31:03.634Z,37.80
2018-10-21T16:33:31.247Z,42.50
2018-10-21T16:35:58.811Z,42.90
2018-10-21T16:38:26.526Z,44.10
2018-10-21T16:40:54.144Z,41.20
2018-10-21T16:43:21.849Z,45.30
2018-10-21T16:45:49.455Z,38.30
2018-10-21T16:48:17.214Z,37.50
2018-10-21T16:50:44.796Z,40.20
2018-10-21T16:53:12.449Z,37.10
2018-10-21T16:55:39.946Z,37.50
2018-10-21T16:58:07.558Z,39.60
2018-10-21T17:00:35.353Z,38.80
2018-10-21T17:06:00.511Z,39.00
2018-10-21T17:08:30.031Z,41.60
2018-10-21T17:10:57.811Z,38.40
2018-10-21T17:13:25.390Z,38.50
2018-10-21T17:15:53.050Z,39.40
2018-10-21T17:18:20.787Z,38.70
2018-10-21T17:20:50.985Z,41.10
2018-10-21T17:23:18.698Z,38.40
2018-10-21T17:25:46.902Z,39.80
2018-10-21T17:28:14.773Z,38.80
2018-10-21T17:30:42.413Z,39.60
2018-10-21T17:33:10.039Z,39.30
2018-10-21T17:35:37.675Z,39.60
2018-10-21T17:38:05.430Z,39.80
2018-10-21T17:40:33.297Z,40.30
2018-10-21T17:43:01.175Z,40.80
2018-10-21T17:45:29.037Z,40.60
2018-10-21T17:47:56.971Z,40.50
2018-10-21T17:50:24.886Z,43.50
2018-10-21T17:52:52.638Z,40.80
2018-10-21T17:55:20.475Z,40.90
2018-10-21T17:57:49.755Z,44.10
2018-10-21T18:00:18.639Z,43.60
2018-10-21T18:02:46.421Z,46.40
2018-10-21T18:05:14.459Z,45.80
2018-10-21T18:07:42.463Z,40.70
2018-10-21T18:10:10.857Z,42.00
2018-10-21T18:12:38.549Z,41.60
2018-10-21T18:15:07.295Z,49.80
2018-10-21T18:17:38.390Z,51.90
2018-10-21T18:20:10.104Z,44.30
2018-10-21T18:22:37.974Z,49.00
2018-10-21T18:25:06.570Z,52.60
2018-10-21T18:27:34.281Z,50.50
2018-10-21T18:30:02.168Z,43.40
2018-10-21T18:32:30.016Z,44.10
2018-10-21T18:34:57.847Z,49.90
2018-10-21T18:37:25.583Z,41.30
2018-10-21T18:39:53.365Z,45.00
2018-10-21T18:42:21.277Z,55.30
2018-10-21T18:44:49.148Z,56.40
2018-10-21T18:47:16.936Z,56.20
2018-10-21T18:49:44.643Z,53.50
2018-10-21T18:52:12.574Z,55.60
2018-10-21T18:54:40.547Z,49.40
2018-10-21T18:57:08.458Z,50.70
2018-10-21T18:59:36.280Z,53.40
2018-10-21T19:02:04.425Z,55.60
2018-10-21T19:04:32.255Z,48.40
2018-10-21T19:07:00.246Z,50.80
2018-10-21T19:09:28.068Z,46.30
2018-10-21T19:11:55.722Z,47.10
2018-10-21T19:14:23.466Z,46.40
2018-10-21T19:16:51.253Z,49.90
2018-10-21T19:19:18.883Z,46.00
2018-10-21T19:21:46.627Z,55.80
2018-10-21T19:24:14.520Z,56.70
2018-10-21T19:26:42.275Z,55.90
2018-10-21T19:29:10.172Z,56.10
2018-10-21T19:31:37.914Z,55.70
2018-10-21T19:34:05.836Z,55.20
2018-10-21T19:36:33.519Z,56.10
2018-10-21T19:39:01.191Z,56.80
2018-10-21T19:41:29.149Z,55.60
2018-10-21T19:43:56.871Z,53.60
2018-10-21T19:46:24.598Z,55.10
2018-10-21T19:48:52.296Z,51.80
2018-10-21T19:51:20.209Z,56.70
2018-10-21T19:53:47.891Z,53.20
2018-10-21T19:56:15.751Z,54.50
2018-10-21T19:58:43.735Z,51.70
2018-10-21T20:01:11.468Z,54.30
2018-10-21T20:03:39.255Z,53.60
2018-10-21T20:06:06.969Z,52.60
2018-10-21T20:08:34.661Z,53.50
2018-10-21T20:11:02.374Z,54.20
2018-10-21T20:13:31.273Z,53.90
2018-10-21T20:15:59.121Z,50.30
2018-10-21T20:18:26.829Z,55.10
2018-10-21T20:20:54.548Z,55.70
2018-10-21T20:23:22.228Z,54.70
2018-10-21T20:25:49.895Z,54.00
2018-10-21T20:28:17.697Z,54.00
2018-10-21T20:30:45.326Z,53.40
2018-10-21T20:33:13.140Z,54.10
2018-10-21T20:35:40.788Z,52.40
2018-10-21T20:38:08.484Z,54.00
2018-10-21T20:40:36.164Z,54.00
2018-10-21T20:43:03.961Z,51.40
2018-10-21T20:45:31.581Z,52.40
2018-10-21T20:47:59.282Z,51.00
2018-10-21T20:50:26.908Z,53.40
2018-10-21T20:52:54.568Z,53.30
2018-10-21T20:55:22.388Z,52.10
2018-10-21T20:57:50.088Z,53.70
2018-10-21T21:00:17.741Z,50.40
2018-10-21T21:02:45.408Z,52.70
2018-10-21T21:05:13.313Z,52.90
2018-10-21T21:07:40.964Z,53.70
2018-10-21T21:10:09.023Z,52.80
2018-10-21T21:12:36.611Z,49.10
2018-10-21T21:15:05.467Z,48.60
2018-10-21T21:17:33.268Z,52.70
2018-10-21T21:20:00.970Z,53.50
2018-10-21T21:22:28.663Z,48.60
2018-10-21T21:24:56.335Z,55.10
2018-10-21T21:27:24.005Z,48.40
2018-10-21T21:29:52.900Z,56.80
2018-10-21T21:32:20.917Z,47.20
2018-10-21T21:34:48.538Z,57.80
2018-10-21T21:37:16.209Z,49.40
2018-10-21T21:39:43.850Z,57.20
2018-10-21T21:42:12.364Z,55.80
2018-10-21T21:44:40.869Z,51.10
2018-10-21T21:47:09.503Z,56.90
2018-10-21T21:49:37.286Z,54.30
2018-10-21T21:52:05.047Z,52.60
2018-10-21T21:54:32.622Z,53.10
2018-10-21T21:57:00.276Z,49.00
2018-10-21T21:59:27.903Z,49.80
2018-10-21T22:01:55.578Z,53.70
2018-10-21T22:04:24.083Z,48.90
2018-10-21T22:06:52.593Z,45.30
2018-10-21T22:09:20.339Z,46.70
2018-10-21T22:11:47.995Z,50.90
2018-10-21T22:14:15.638Z,55.40
2018-10-21T22:16:43.272Z,53.50
2018-10-21T22:19:10.935Z,58.70
2018-10-21T22:21:38.757Z,61.20
2018-10-21T22:24:08.161Z,58.00
2018-10-21T22:26:35.887Z,55.90
2018-10-21T22:29:03.638Z,54.00
2018-10-21T22:31:31.247Z,53.70
2018-10-21T22:33:58.981Z,50.90
2018-10-21T22:36:26.647Z,54.30
2018-10-21T22:38:54.250Z,53.70
2018-10-21T22:41:21.890Z,53.00
2018-10-21T22:43:49.566Z,52.00
2018-10-21T22:46:17.334Z,47.70
2018-10-21T22:48:45.028Z,47.50
2018-10-21T22:51:12.871Z,53.80
2018-10-21T22:53:40.532Z,55.20
2018-10-21T22:56:08.196Z,50.10
2018-10-21T22:58:35.838Z,55.50
2018-10-21T23:01:03.623Z,52.00
2018-10-21T23:03:31.327Z,52.70
2018-10-21T23:05:59.012Z,56.40
2018-10-21T23:08:26.883Z,53.40
2018-10-21T23:10:54.554Z,59.10
2018-10-21T23:13:22.190Z,56.40
2018-10-21T23:15:49.805Z,56.20
2018-10-21T23:18:17.467Z,52.70
2018-10-21T23:20:45.106Z,56.20
2018-10-21T23:23:12.761Z,54.40
2018-10-21T23:25:40.395Z,50.00
2018-10-21T23:28:08.110Z,48.70
2018-10-21T23:30:35.675Z,55.30
2018-10-21T23:33:03.309Z,49.10
2018-10-21T23:35:30.959Z,51.50
2018-10-21T23:37:58.621Z,52.10
2018-10-21T23:40:26.226Z,50.80
2018-10-21T23:42:53.879Z,57.10
2018-10-21T23:45:21.532Z,57.70
2018-10-21T23:47:49.273Z,54.90
2018-10-21T23:50:16.915Z,55.00
2018-10-21T23:52:44.554Z,56.90
2018-10-21T23:55:12.247Z,57.90
2018-10-21T23:57:39.930Z,57.90
